sensor_id;sensor_type;location;lat;lon;timestamp;pressure;altitude;pressure_sealevel;temperature;humidity
6528;BME280;64597;42.664;23.256;2023-09-19T00:01:15;94961.09;;;17.02;nan
6528;BME280;64597;42.664;23.256;2023-09-19T00:03:40;94955.47;;;16.99;nan
6528;BME280;64597;42.664;23.256;2023-09-19T00:06:07;94943.75;;;16.90;nan
6528;BME280;64597;42.664;23.256;2023-09-19T00:08:33;94960.53;;;16.95;nan
6528;BME280;64597;42.664;23.256;2023-09-19T00:10:59;94968.50;;;16.85;nan
6528;BME280;64597;42.664;23.256;2023-09-19T00:13:31;94966.34;;;16.77;nan
6528;BME280;64597;42.664;23.256;2023-09-19T00:15:57;94938.06;;;16.56;nan
6528;BME280;64597;42.664;23.256;2023-09-19T00:18:24;94953.50;;;16.64;nan
6528;BME280;64597;42.664;23.256;2023-09-19T00:20:57;94955.41;;;16.64;nan
6528;BME280;64597;42.664;23.256;2023-09-19T00:23:22;94952.75;;;16.64;nan
6528;BME280;64597;42.664;23.256;2023-09-19T00:25:48;94945.53;;;16.64;nan
6528;BME280;64597;42.664;23.256;2023-09-19T00:28:14;94947.94;;;16.66;nan
6528;BME280;64597;42.664;23.256;2023-09-19T00:30:42;94942.06;;;16.59;nan
6528;BME280;64597;42.664;23.256;2023-09-19T00:33:08;94936.47;;;16.60;nan
6528;BME280;64597;42.664;23.256;2023-09-19T00:35:33;94929.03;;;16.57;nan
6528;BME280;64597;42.664;23.256;2023-09-19T00:37:59;94906.56;;;16.38;nan
6528;BME280;64597;42.664;23.256;2023-09-19T00:40:24;94938.59;;;16.53;nan
6528;BME280;64597;42.664;23.256;2023-09-19T00:42:50;94936.97;;;16.52;nan
6528;BME280;64597;42.664;23.256;2023-09-19T00:45:17;94939.09;;;16.50;nan
6528;BME280;64597;42.664;23.256;2023-09-19T00:47:50;94938.31;;;16.50;nan
6528;BME280;64597;42.664;23.256;2023-09-19T00:50:17;94948.41;;;16.47;nan
6528;BME280;64597;42.664;23.256;2023-09-19T00:52:49;94932.63;;;16.36;nan
6528;BME280;64597;42.664;23.256;2023-09-19T00:55:16;94935.53;;;16.29;nan
6528;BME280;64597;42.664;23.256;2023-09-19T00:57:45;94936.88;;;16.32;nan
6528;BME280;64597;42.664;23.256;2023-09-19T01:00:11;94937.91;;;16.26;nan
6528;BME280;64597;42.664;23.256;2023-09-19T01:02:41;94936.84;;;16.22;nan
6528;BME280;64597;42.664;23.256;2023-09-19T01:05:08;94929.91;;;16.16;nan
6528;BME280;64597;42.664;23.256;2023-09-19T01:07:33;94925.34;;;16.11;nan
6528;BME280;64597;42.664;23.256;2023-09-19T01:10:02;94925.66;;;16.15;nan
6528;BME280;64597;42.664;23.256;2023-09-19T01:12:39;94938.69;;;16.16;nan
6528;BME280;64597;42.664;23.256;2023-09-19T01:18:35;94940.53;;;16.11;nan
6528;BME280;64597;42.664;23.256;2023-09-19T01:24:00;94947.44;;;16.12;nan
6528;BME280;64597;42.664;23.256;2023-09-19T01:29:40;94943.16;;;16.06;nan
6528;BME280;64597;42.664;23.256;2023-09-19T01:32:08;94941.03;;;16.08;nan
6528;BME280;64597;42.664;23.256;2023-09-19T01:34:55;94940.44;;;16.01;nan
6528;BME280;64597;42.664;23.256;2023-09-19T01:37:30;94937.03;;;16.05;nan
6528;BME280;64597;42.664;23.256;2023-09-19T01:40:00;94948.44;;;16.01;nan
6528;BME280;64597;42.664;23.256;2023-09-19T01:42:57;94952.69;;;16.02;nan
6528;BME280;64597;42.664;23.256;2023-09-19T01:47:54;94929.75;;;15.91;nan
6528;BME280;64597;42.664;23.256;2023-09-19T01:50:38;94944.94;;;15.95;nan
6528;BME280;64597;42.664;23.256;2023-09-19T01:53:15;94943.59;;;15.93;nan
6528;BME280;64597;42.664;23.256;2023-09-19T01:55:47;94937.13;;;15.79;nan
6528;BME280;64597;42.664;23.256;2023-09-19T01:58:34;94938.22;;;15.83;nan
6528;BME280;64597;42.664;23.256;2023-09-19T02:01:04;94940.34;;;15.81;nan
6528;BME280;64597;42.664;23.256;2023-09-19T02:03:31;94941.41;;;15.80;nan
6528;BME280;64597;42.664;23.256;2023-09-19T02:05:56;94941.38;;;15.75;nan
6528;BME280;64597;42.664;23.256;2023-09-19T02:08:22;94953.06;;;15.74;nan
6528;BME280;64597;42.664;23.256;2023-09-19T02:10:51;94945.06;;;15.68;nan
6528;BME280;64597;42.664;23.256;2023-09-19T02:13:19;94937.53;;;15.55;nan
6528;BME280;64597;42.664;23.256;2023-09-19T02:15:45;94942.31;;;15.53;nan
6528;BME280;64597;42.664;23.256;2023-09-19T02:18:11;94938.88;;;15.58;nan
6528;BME280;64597;42.664;23.256;2023-09-19T02:20:37;94938.63;;;15.59;nan
6528;BME280;64597;42.664;23.256;2023-09-19T02:23:03;94938.91;;;15.63;nan
6528;BME280;64597;42.664;23.256;2023-09-19T02:25:28;94930.13;;;15.57;nan
6528;BME280;64597;42.664;23.256;2023-09-19T02:27:54;94936.44;;;15.51;nan
6528;BME280;64597;42.664;23.256;2023-09-19T02:30:24;94927.94;;;15.49;nan
6528;BME280;64597;42.664;23.256;2023-09-19T02:32:50;94934.34;;;15.53;nan
6528;BME280;64597;42.664;23.256;2023-09-19T02:35:16;94935.66;;;15.56;nan
6528;BME280;64597;42.664;23.256;2023-09-19T02:37:42;94917.88;;;15.56;nan
6528;BME280;64597;42.664;23.256;2023-09-19T02:40:08;94902.94;;;15.45;nan
6528;BME280;64597;42.664;23.256;2023-09-19T02:42:55;94914.66;;;15.54;nan
6528;BME280;64597;42.664;23.256;2023-09-19T02:45:21;94914.84;;;15.43;nan
6528;BME280;64597;42.664;23.256;2023-09-19T02:47:48;94912.94;;;15.38;nan
6528;BME280;64597;42.664;23.256;2023-09-19T02:50:15;94907.72;;;15.48;nan
6528;BME280;64597;42.664;23.256;2023-09-19T02:52:45;94912.19;;;15.43;nan
6528;BME280;64597;42.664;23.256;2023-09-19T02:55:15;94910.75;;;15.35;nan
6528;BME280;64597;42.664;23.256;2023-09-19T02:57:49;94907.06;;;15.36;nan
6528;BME280;64597;42.664;23.256;2023-09-19T03:00:15;94910.19;;;15.28;nan
6528;BME280;64597;42.664;23.256;2023-09-19T03:02:41;94901.13;;;15.24;nan
6528;BME280;64597;42.664;23.256;2023-09-19T03:05:08;94900.00;;;15.15;nan
6528;BME280;64597;42.664;23.256;2023-09-19T03:07:36;94891.81;;;15.22;nan
6528;BME280;64597;42.664;23.256;2023-09-19T03:10:05;94893.16;;;15.24;nan
6528;BME280;64597;42.664;23.256;2023-09-19T03:12:31;94892.06;;;15.20;nan
6528;BME280;64597;42.664;23.256;2023-09-19T03:14:57;94890.66;;;15.13;nan
6528;BME280;64597;42.664;23.256;2023-09-19T03:17:22;94908.22;;;15.14;nan
6528;BME280;64597;42.664;23.256;2023-09-19T03:19:48;94905.31;;;15.15;nan
6528;BME280;64597;42.664;23.256;2023-09-19T03:22:14;94881.84;;;15.02;nan
6528;BME280;64597;42.664;23.256;2023-09-19T03:24:40;94905.78;;;15.07;nan
6528;BME280;64597;42.664;23.256;2023-09-19T03:27:05;94896.97;;;15.02;nan
6528;BME280;64597;42.664;23.256;2023-09-19T03:29:31;94900.44;;;15.02;nan
6528;BME280;64597;42.664;23.256;2023-09-19T03:31:56;94854.56;;;14.80;nan
6528;BME280;64597;42.664;23.256;2023-09-19T03:34:22;94902.09;;;15.08;nan
6528;BME280;64597;42.664;23.256;2023-09-19T03:36:47;94900.19;;;15.04;nan
6528;BME280;64597;42.664;23.256;2023-09-19T03:39:13;94885.75;;;14.95;nan
6528;BME280;64597;42.664;23.256;2023-09-19T03:41:41;94905.22;;;15.05;nan
6528;BME280;64597;42.664;23.256;2023-09-19T03:44:06;94916.38;;;15.02;nan
6528;BME280;64597;42.664;23.256;2023-09-19T03:46:32;94920.34;;;15.05;nan
6528;BME280;64597;42.664;23.256;2023-09-19T03:48:58;94912.09;;;15.01;nan
6528;BME280;64597;42.664;23.256;2023-09-19T03:51:23;94913.97;;;15.37;nan
6528;BME280;64597;42.664;23.256;2023-09-19T03:53:49;94898.19;;;16.81;nan
6528;BME280;64597;42.664;23.256;2023-09-19T03:56:15;94912.50;;;18.11;nan
6528;BME280;64597;42.664;23.256;2023-09-19T03:58:40;94903.28;;;18.91;nan
6528;BME280;64597;42.664;23.256;2023-09-19T04:01:06;94903.16;;;19.50;nan
6528;BME280;64597;42.664;23.256;2023-09-19T04:03:33;94888.53;;;19.95;nan
6528;BME280;64597;42.664;23.256;2023-09-19T04:06:15;94913.38;;;20.47;nan
6528;BME280;64597;42.664;23.256;2023-09-19T04:08:41;94912.41;;;20.81;nan
6528;BME280;64597;42.664;23.256;2023-09-19T04:11:06;94920.91;;;21.06;nan
6528;BME280;64597;42.664;23.256;2023-09-19T04:13:32;94925.91;;;20.52;nan
6528;BME280;64597;42.664;23.256;2023-09-19T04:15:58;94925.84;;;19.81;nan
6528;BME280;64597;42.664;23.256;2023-09-19T04:18:23;94930.34;;;19.23;nan
6528;BME280;64597;42.664;23.256;2023-09-19T04:20:49;94928.50;;;18.75;nan
6528;BME280;64597;42.664;23.256;2023-09-19T04:23:15;94923.59;;;18.38;nan
6528;BME280;64597;42.664;23.256;2023-09-19T04:25:42;94922.91;;;18.07;nan
6528;BME280;64597;42.664;23.256;2023-09-19T04:28:07;94913.63;;;17.75;nan
6528;BME280;64597;42.664;23.256;2023-09-19T04:30:33;94909.94;;;17.46;nan
6528;BME280;64597;42.664;23.256;2023-09-19T04:32:58;94910.97;;;17.29;nan
6528;BME280;64597;42.664;23.256;2023-09-19T04:35:28;94914.72;;;17.18;nan
6528;BME280;64597;42.664;23.256;2023-09-19T04:37:57;94900.88;;;17.06;nan
6528;BME280;64597;42.664;23.256;2023-09-19T04:40:22;94906.72;;;16.93;nan
6528;BME280;64597;42.664;23.256;2023-09-19T04:42:56;94907.50;;;16.79;nan
6528;BME280;64597;42.664;23.256;2023-09-19T04:45:25;94907.47;;;16.64;nan
6528;BME280;64597;42.664;23.256;2023-09-19T04:47:51;94915.69;;;16.62;nan
6528;BME280;64597;42.664;23.256;2023-09-19T04:50:17;94912.50;;;16.55;nan
6528;BME280;64597;42.664;23.256;2023-09-19T04:52:44;94907.13;;;16.45;nan
6528;BME280;64597;42.664;23.256;2023-09-19T04:55:13;94906.03;;;16.36;nan
6528;BME280;64597;42.664;23.256;2023-09-19T04:57:46;94898.03;;;16.36;nan
6528;BME280;64597;42.664;23.256;2023-09-19T05:00:17;94905.50;;;16.44;nan
6528;BME280;64597;42.664;23.256;2023-09-19T05:02:45;94899.94;;;16.45;nan
6528;BME280;64597;42.664;23.256;2023-09-19T05:05:11;94895.16;;;16.47;nan
6528;BME280;64597;42.664;23.256;2023-09-19T05:07:42;94897.03;;;16.52;nan
6528;BME280;64597;42.664;23.256;2023-09-19T05:10:08;94906.41;;;16.60;nan
6528;BME280;64597;42.664;23.256;2023-09-19T05:12:34;94904.00;;;16.63;nan
6528;BME280;64597;42.664;23.256;2023-09-19T05:15:04;94888.53;;;16.60;nan
6528;BME280;64597;42.664;23.256;2023-09-19T05:17:31;94912.56;;;16.80;nan
6528;BME280;64597;42.664;23.256;2023-09-19T05:19:57;94906.16;;;16.81;nan
6528;BME280;64597;42.664;23.256;2023-09-19T05:22:23;94901.09;;;16.85;nan
6528;BME280;64597;42.664;23.256;2023-09-19T05:24:50;94891.53;;;16.94;nan
6528;BME280;64597;42.664;23.256;2023-09-19T05:27:16;94889.16;;;17.02;nan
6528;BME280;64597;42.664;23.256;2023-09-19T05:29:43;94892.09;;;17.11;nan
6528;BME280;64597;42.664;23.256;2023-09-19T05:32:10;94895.00;;;17.14;nan
6528;BME280;64597;42.664;23.256;2023-09-19T05:34:36;94897.69;;;17.24;nan
6528;BME280;64597;42.664;23.256;2023-09-19T05:37:01;94898.75;;;17.28;nan
6528;BME280;64597;42.664;23.256;2023-09-19T05:39:27;94891.81;;;17.33;nan
6528;BME280;64597;42.664;23.256;2023-09-19T05:41:53;94889.13;;;17.33;nan
6528;BME280;64597;42.664;23.256;2023-09-19T05:44:18;94877.94;;;17.30;nan
6528;BME280;64597;42.664;23.256;2023-09-19T05:46:44;94886.19;;;17.44;nan
6528;BME280;64597;42.664;23.256;2023-09-19T05:49:11;94871.81;;;17.40;nan
6528;BME280;64597;42.664;23.256;2023-09-19T05:51:36;94890.47;;;17.60;nan
6528;BME280;64597;42.664;23.256;2023-09-19T05:54:02;94890.44;;;17.70;nan
6528;BME280;64597;42.664;23.256;2023-09-19T05:56:27;94894.97;;;17.80;nan
6528;BME280;64597;42.664;23.256;2023-09-19T05:58:52;94888.56;;;17.86;nan
6528;BME280;64597;42.664;23.256;2023-09-19T06:01:18;94871.47;;;17.92;nan
6528;BME280;64597;42.664;23.256;2023-09-19T06:03:44;94866.16;;;18.89;nan
6528;BME280;64597;42.664;23.256;2023-09-19T06:06:10;94872.91;;;19.78;nan
6528;BME280;64597;42.664;23.256;2023-09-19T06:08:35;94838.66;;;20.27;nan
6528;BME280;64597;42.664;23.256;2023-09-19T06:11:00;94871.97;;;20.96;nan
6528;BME280;64597;42.664;23.256;2023-09-19T06:13:29;94869.94;;;21.25;nan
6528;BME280;64597;42.664;23.256;2023-09-19T06:15:55;94858.88;;;21.45;nan
6528;BME280;64597;42.664;23.256;2023-09-19T06:18:25;94862.47;;;21.86;nan
6528;BME280;64597;42.664;23.256;2023-09-19T06:20:51;94864.06;;;22.14;nan
6528;BME280;64597;42.664;23.256;2023-09-19T06:23:17;94860.19;;;22.34;nan
6528;BME280;64597;42.664;23.256;2023-09-19T06:25:45;94857.47;;;22.75;nan
6528;BME280;64597;42.664;23.256;2023-09-19T06:28:10;94845.25;;;23.13;nan
6528;BME280;64597;42.664;23.256;2023-09-19T06:30:38;94848.09;;;23.52;nan
6528;BME280;64597;42.664;23.256;2023-09-19T06:33:05;94844.25;;;23.75;nan
6528;BME280;64597;42.664;23.256;2023-09-19T06:35:32;94851.97;;;23.99;nan
6528;BME280;64597;42.664;23.256;2023-09-19T06:37:58;94856.16;;;24.05;nan
6528;BME280;64597;42.664;23.256;2023-09-19T06:40:23;94856.03;;;24.19;nan
6528;BME280;64597;42.664;23.256;2023-09-19T06:42:53;94856.72;;;24.24;nan
6528;BME280;64597;42.664;23.256;2023-09-19T06:45:19;94858.78;;;24.36;nan
6528;BME280;64597;42.664;23.256;2023-09-19T06:47:50;94857.38;;;24.38;nan
6528;BME280;64597;42.664;23.256;2023-09-19T06:50:22;94856.41;;;24.43;nan
6528;BME280;64597;42.664;23.256;2023-09-19T06:52:52;94869.00;;;24.56;nan
6528;BME280;64597;42.664;23.256;2023-09-19T06:55:19;94869.81;;;24.65;nan
6528;BME280;64597;42.664;23.256;2023-09-19T06:57:48;94832.97;;;24.52;nan
6528;BME280;64597;42.664;23.256;2023-09-19T07:00:14;94856.84;;;24.84;nan
6528;BME280;64597;42.664;23.256;2023-09-19T07:02:58;94857.16;;;24.74;nan
6528;BME280;64597;42.664;23.256;2023-09-19T07:05:28;94863.16;;;24.71;nan
6528;BME280;64597;42.664;23.256;2023-09-19T07:07:54;94866.38;;;24.73;nan
6528;BME280;64597;42.664;23.256;2023-09-19T07:10:21;94864.06;;;24.58;nan
6528;BME280;64597;42.664;23.256;2023-09-19T07:12:57;94827.19;;;24.19;nan
6528;BME280;64597;42.664;23.256;2023-09-19T07:15:27;94862.66;;;24.13;nan
6528;BME280;64597;42.664;23.256;2023-09-19T07:17:54;94876.00;;;23.56;nan
6528;BME280;64597;42.664;23.256;2023-09-19T07:20:20;94868.28;;;23.41;nan
6528;BME280;64597;42.664;23.256;2023-09-19T07:22:46;94876.88;;;23.30;nan
6528;BME280;64597;42.664;23.256;2023-09-19T07:25:12;94875.03;;;23.17;nan
6528;BME280;64597;42.664;23.256;2023-09-19T07:27:41;94871.13;;;23.01;nan
6528;BME280;64597;42.664;23.256;2023-09-19T07:30:07;94875.06;;;22.81;nan
6528;BME280;64597;42.664;23.256;2023-09-19T07:32:33;94849.81;;;22.55;nan
6528;BME280;64597;42.664;23.256;2023-09-19T07:35:02;94868.53;;;22.60;nan
6528;BME280;64597;42.664;23.256;2023-09-19T07:37:29;94871.91;;;22.65;nan
6528;BME280;64597;42.664;23.256;2023-09-19T07:39:56;94870.63;;;22.63;nan
6528;BME280;64597;42.664;23.256;2023-09-19T07:42:22;94881.88;;;22.65;nan
6528;BME280;64597;42.664;23.256;2023-09-19T07:44:47;94874.31;;;22.67;nan
6528;BME280;64597;42.664;23.256;2023-09-19T07:47:16;94870.63;;;22.63;nan
6528;BME280;64597;42.664;23.256;2023-09-19T07:49:41;94866.53;;;22.65;nan
6528;BME280;64597;42.664;23.256;2023-09-19T07:52:10;94870.63;;;22.63;nan
6528;BME280;64597;42.664;23.256;2023-09-19T07:54:36;94876.88;;;22.72;nan
6528;BME280;64597;42.664;23.256;2023-09-19T07:57:02;94879.47;;;22.77;nan
6528;BME280;64597;42.664;23.256;2023-09-19T07:59:27;94880.66;;;22.71;nan
6528;BME280;64597;42.664;23.256;2023-09-19T08:01:53;94880.06;;;22.74;nan
6528;BME280;64597;42.664;23.256;2023-09-19T08:04:19;94875.25;;;22.84;nan
6528;BME280;64597;42.664;23.256;2023-09-19T08:06:45;94863.47;;;22.94;nan
6528;BME280;64597;42.664;23.256;2023-09-19T08:09:11;94847.13;;;22.90;nan
6528;BME280;64597;42.664;23.256;2023-09-19T08:11:37;94859.69;;;22.95;nan
6528;BME280;64597;42.664;23.256;2023-09-19T08:14:04;94855.03;;;23.09;nan
6528;BME280;64597;42.664;23.256;2023-09-19T08:16:31;94852.00;;;23.24;nan
6528;BME280;64597;42.664;23.256;2023-09-19T08:18:56;94848.47;;;23.37;nan
6528;BME280;64597;42.664;23.256;2023-09-19T08:21:22;94841.25;;;23.46;nan
6528;BME280;64597;42.664;23.256;2023-09-19T08:23:49;94832.50;;;23.63;nan
6528;BME280;64597;42.664;23.256;2023-09-19T08:26:15;94829.22;;;23.74;nan
6528;BME280;64597;42.664;23.256;2023-09-19T08:28:41;94852.69;;;23.83;nan
6528;BME280;64597;42.664;23.256;2023-09-19T08:31:07;94844.97;;;23.98;nan
6528;BME280;64597;42.664;23.256;2023-09-19T08:33:36;94850.34;;;24.20;nan
6528;BME280;64597;42.664;23.256;2023-09-19T08:36:03;94857.25;;;24.52;nan
6528;BME280;64597;42.664;23.256;2023-09-19T08:38:31;94851.13;;;24.77;nan
6528;BME280;64597;42.664;23.256;2023-09-19T08:41:04;94831.88;;;24.70;nan
6528;BME280;64597;42.664;23.256;2023-09-19T08:43:30;94844.78;;;24.73;nan
6528;BME280;64597;42.664;23.256;2023-09-19T08:46:07;94844.31;;;24.88;nan
6528;BME280;64597;42.664;23.256;2023-09-19T08:48:38;94842.41;;;24.89;nan
6528;BME280;64597;42.664;23.256;2023-09-19T08:51:07;94836.06;;;24.85;nan
6528;BME280;64597;42.664;23.256;2023-09-19T08:56:12;94840.34;;;24.77;nan
6528;BME280;64597;42.664;23.256;2023-09-19T08:58:44;94832.56;;;24.84;nan
6528;BME280;64597;42.664;23.256;2023-09-19T09:01:15;94835.44;;;24.88;nan
6528;BME280;64597;42.664;23.256;2023-09-19T09:03:42;94835.91;;;24.98;nan
6528;BME280;64597;42.664;23.256;2023-09-19T09:06:13;94839.03;;;24.66;nan
6528;BME280;64597;42.664;23.256;2023-09-19T09:08:41;94837.59;;;24.69;nan
6528;BME280;64597;42.664;23.256;2023-09-19T09:11:07;94826.38;;;24.92;nan
6528;BME280;64597;42.664;23.256;2023-09-19T09:13:35;94830.34;;;24.86;nan
6528;BME280;64597;42.664;23.256;2023-09-19T09:16:01;94831.47;;;24.94;nan
6528;BME280;64597;42.664;23.256;2023-09-19T09:18:28;94817.16;;;25.19;nan
6528;BME280;64597;42.664;23.256;2023-09-19T09:20:55;94817.16;;;25.45;nan
6528;BME280;64597;42.664;23.256;2023-09-19T09:23:21;94808.84;;;25.67;nan
6528;BME280;64597;42.664;23.256;2023-09-19T09:25:51;94812.78;;;25.78;nan
6528;BME280;64597;42.664;23.256;2023-09-19T09:28:21;94804.16;;;25.84;nan
6528;BME280;64597;42.664;23.256;2023-09-19T09:30:47;94805.44;;;25.87;nan
6528;BME280;64597;42.664;23.256;2023-09-19T09:33:13;94799.56;;;25.85;nan
6528;BME280;64597;42.664;23.256;2023-09-19T09:35:57;94802.72;;;25.87;nan
6528;BME280;64597;42.664;23.256;2023-09-19T09:38:25;94799.34;;;25.98;nan
6528;BME280;64597;42.664;23.256;2023-09-19T09:40:53;94783.16;;;26.28;nan
6528;BME280;64597;42.664;23.256;2023-09-19T09:43:39;94780.84;;;26.67;nan
6528;BME280;64597;42.664;23.256;2023-09-19T09:46:25;94785.06;;;26.56;nan
6528;BME280;64597;42.664;23.256;2023-09-19T09:51:40;94780.78;;;26.55;nan
6528;BME280;64597;42.664;23.256;2023-09-19T09:54:24;94786.31;;;26.59;nan
6528;BME280;64597;42.664;23.256;2023-09-19T09:56:54;94783.03;;;26.53;nan
6528;BME280;64597;42.664;23.256;2023-09-19T09:59:51;94783.19;;;26.48;nan
6528;BME280;64597;42.664;23.256;2023-09-19T10:02:21;94778.63;;;26.40;nan
6528;BME280;64597;42.664;23.256;2023-09-19T10:04:51;94779.94;;;26.34;nan
6528;BME280;64597;42.664;23.256;2023-09-19T10:07:31;94772.94;;;26.33;nan
6528;BME280;64597;42.664;23.256;2023-09-19T10:10:15;94777.13;;;26.31;nan
6528;BME280;64597;42.664;23.256;2023-09-19T10:12:47;94759.03;;;26.23;nan
6528;BME280;64597;42.664;23.256;2023-09-19T10:15:15;94765.97;;;26.32;nan
6528;BME280;64597;42.664;23.256;2023-09-19T10:17:43;94775.19;;;26.31;nan
6528;BME280;64597;42.664;23.256;2023-09-19T10:20:09;94768.84;;;26.27;nan
6528;BME280;64597;42.664;23.256;2023-09-19T10:22:48;94769.53;;;26.24;nan
6528;BME280;64597;42.664;23.256;2023-09-19T10:25:29;94767.91;;;26.23;nan
6528;BME280;64597;42.664;23.256;2023-09-19T10:27:57;94773.53;;;26.18;nan
6528;BME280;64597;42.664;23.256;2023-09-19T10:30:27;94759.59;;;26.07;nan
6528;BME280;64597;42.664;23.256;2023-09-19T10:33:00;94770.81;;;26.18;nan
6528;BME280;64597;42.664;23.256;2023-09-19T10:35:26;94768.09;;;26.27;nan
6528;BME280;64597;42.664;23.256;2023-09-19T10:37:54;94767.53;;;26.33;nan
6528;BME280;64597;42.664;23.256;2023-09-19T10:40:20;94769.91;;;26.14;nan
6528;BME280;64597;42.664;23.256;2023-09-19T10:42:48;94755.13;;;26.11;nan
6528;BME280;64597;42.664;23.256;2023-09-19T10:45:16;94756.88;;;26.07;nan
6528;BME280;64597;42.664;23.256;2023-09-19T10:47:42;94758.78;;;26.07;nan
6528;BME280;64597;42.664;23.256;2023-09-19T10:50:08;94749.72;;;26.11;nan
6528;BME280;64597;42.664;23.256;2023-09-19T10:52:40;94730.16;;;26.06;nan
6528;BME280;64597;42.664;23.256;2023-09-19T10:55:08;94746.22;;;26.11;nan
6528;BME280;64597;42.664;23.256;2023-09-19T10:57:36;94751.31;;;26.13;nan
6528;BME280;64597;42.664;23.256;2023-09-19T11:00:06;94744.16;;;26.08;nan
6528;BME280;64597;42.664;23.256;2023-09-19T11:05:40;94740.50;;;26.13;nan
6528;BME280;64597;42.664;23.256;2023-09-19T11:08:09;94744.31;;;26.03;nan
6528;BME280;64597;42.664;23.256;2023-09-19T11:10:50;94736.22;;;26.03;nan
6528;BME280;64597;42.664;23.256;2023-09-19T11:13:29;94721.31;;;25.97;nan
6528;BME280;64597;42.664;23.256;2023-09-19T11:24:28;94729.00;;;26.16;nan
6528;BME280;64597;42.664;23.256;2023-09-19T11:27:15;94729.81;;;26.16;nan
6528;BME280;64597;42.664;23.256;2023-09-19T11:29:43;94706.47;;;26.11;nan
6528;BME280;64597;42.664;23.256;2023-09-19T11:32:08;94725.06;;;26.34;nan
6528;BME280;64597;42.664;23.256;2023-09-19T11:34:42;94710.19;;;26.48;nan
6528;BME280;64597;42.664;23.256;2023-09-19T11:39:39;94696.72;;;26.60;nan
6528;BME280;64597;42.664;23.256;2023-09-19T11:48:18;94688.59;;;26.60;nan
6528;BME280;64597;42.664;23.256;2023-09-19T11:50:45;94691.31;;;26.60;nan
6528;BME280;64597;42.664;23.256;2023-09-19T11:53:12;94685.66;;;26.53;nan
6528;BME280;64597;42.664;23.256;2023-09-19T11:55:39;94695.09;;;26.47;nan
6528;BME280;64597;42.664;23.256;2023-09-19T11:58:07;94681.00;;;26.54;nan
6528;BME280;64597;42.664;23.256;2023-09-19T12:00:34;94680.47;;;26.60;nan
6528;BME280;64597;42.664;23.256;2023-09-19T12:03:08;94673.28;;;26.64;nan
6528;BME280;64597;42.664;23.256;2023-09-19T12:05:37;94678.69;;;26.64;nan
6528;BME280;64597;42.664;23.256;2023-09-19T12:08:09;94667.06;;;26.64;nan
6528;BME280;64597;42.664;23.256;2023-09-19T12:10:46;94658.59;;;26.53;nan
6528;BME280;64597;42.664;23.256;2023-09-19T12:13:16;94658.59;;;26.53;nan
6528;BME280;64597;42.664;23.256;2023-09-19T12:15:42;94650.25;;;26.58;nan
6528;BME280;64597;42.664;23.256;2023-09-19T12:18:25;94656.09;;;26.48;nan
6528;BME280;64597;42.664;23.256;2023-09-19T12:20:50;94648.88;;;26.52;nan
6528;BME280;64597;42.664;23.256;2023-09-19T12:23:17;94643.75;;;26.59;nan
6528;BME280;64597;42.664;23.256;2023-09-19T12:25:44;94637.47;;;26.67;nan
6528;BME280;64597;42.664;23.256;2023-09-19T12:28:13;94635.22;;;26.69;nan
6528;BME280;64597;42.664;23.256;2023-09-19T12:30:41;94630.41;;;26.54;nan
6528;BME280;64597;42.664;23.256;2023-09-19T12:33:16;94626.78;;;26.50;nan
6528;BME280;64597;42.664;23.256;2023-09-19T12:35:44;94621.72;;;26.49;nan
6528;BME280;64597;42.664;23.256;2023-09-19T12:38:10;94623.66;;;26.60;nan
6528;BME280;64597;42.664;23.256;2023-09-19T12:40:38;94627.28;;;26.64;nan
6528;BME280;64597;42.664;23.256;2023-09-19T12:43:08;94619.41;;;26.59;nan
6528;BME280;64597;42.664;23.256;2023-09-19T12:45:34;94620.53;;;26.70;nan
6528;BME280;64597;42.664;23.256;2023-09-19T12:51:10;94630.91;;;26.68;nan
6528;BME280;64597;42.664;23.256;2023-09-19T12:53:39;94623.47;;;26.65;nan
6528;BME280;64597;42.664;23.256;2023-09-19T12:56:09;94628.50;;;26.75;nan
6528;BME280;64597;42.664;23.256;2023-09-19T12:58:57;94616.28;;;26.69;nan
6528;BME280;64597;42.664;23.256;2023-09-19T13:01:31;94615.44;;;26.57;nan
6528;BME280;64597;42.664;23.256;2023-09-19T13:04:16;94612.16;;;26.51;nan
6528;BME280;64597;42.664;23.256;2023-09-19T13:06:50;94605.31;;;26.33;nan
6528;BME280;64597;42.664;23.256;2023-09-19T13:09:17;94610.25;;;26.31;nan
6528;BME280;64597;42.664;23.256;2023-09-19T13:11:43;94598.06;;;26.25;nan
6528;BME280;64597;42.664;23.256;2023-09-19T13:17:07;94604.25;;;26.46;nan
6528;BME280;64597;42.664;23.256;2023-09-19T13:19:48;94590.69;;;26.34;nan
6528;BME280;64597;42.664;23.256;2023-09-19T13:25:15;94586.06;;;26.35;nan
6528;BME280;64597;42.664;23.256;2023-09-19T13:27:44;94587.16;;;26.34;nan
6528;BME280;64597;42.664;23.256;2023-09-19T13:30:13;94582.75;;;26.29;nan
6528;BME280;64597;42.664;23.256;2023-09-19T13:32:39;94591.63;;;26.18;nan
6528;BME280;64597;42.664;23.256;2023-09-19T13:35:07;94590.50;;;26.19;nan
6528;BME280;64597;42.664;23.256;2023-09-19T13:37:34;94585.69;;;26.24;nan
6528;BME280;64597;42.664;23.256;2023-09-19T13:40:05;94581.06;;;26.25;nan
6528;BME280;64597;42.664;23.256;2023-09-19T13:42:31;94582.00;;;26.29;nan
6528;BME280;64597;42.664;23.256;2023-09-19T13:44:57;94537.34;;;26.02;nan
6528;BME280;64597;42.664;23.256;2023-09-19T13:47:22;94584.09;;;26.23;nan
6528;BME280;64597;42.664;23.256;2023-09-19T13:49:51;94575.72;;;26.16;nan
6528;BME280;64597;42.664;23.256;2023-09-19T13:52:19;94571.81;;;26.05;nan
6528;BME280;64597;42.664;23.256;2023-09-19T13:54:44;94577.00;;;26.19;nan
6528;BME280;64597;42.664;23.256;2023-09-19T13:57:10;94570.56;;;26.23;nan
6528;BME280;64597;42.664;23.256;2023-09-19T13:59:35;94575.78;;;26.28;nan
6528;BME280;64597;42.664;23.256;2023-09-19T14:02:02;94576.25;;;26.30;nan
6528;BME280;64597;42.664;23.256;2023-09-19T14:04:31;94576.44;;;26.25;nan
6528;BME280;64597;42.664;23.256;2023-09-19T14:06:57;94558.38;;;26.17;nan
6528;BME280;64597;42.664;23.256;2023-09-19T14:09:23;94572.03;;;26.21;nan
6528;BME280;64597;42.664;23.256;2023-09-19T14:11:50;94566.03;;;26.15;nan
6528;BME280;64597;42.664;23.256;2023-09-19T14:14:20;94575.50;;;26.21;nan
6528;BME280;64597;42.664;23.256;2023-09-19T14:16:47;94562.22;;;26.16;nan